sensor_id;sensor_type;location;lat;lon;timestamp;pressure;altitude;pressure_sealevel;temperature
56286;BMP180;42191;47.562;9.686;2023-06-22T00:00:53;96708.00;;;26.30
56286;BMP180;42191;47.562;9.686;2023-06-22T00:03:21;96708.00;;;26.30
56286;BMP180;42191;47.562;9.686;2023-06-22T00:05:48;96717.00;;;26.30
56286;BMP180;42191;47.562;9.686;2023-06-22T00:08:15;96704.00;;;26.20
56286;BMP180;42191;47.562;9.686;2023-06-22T00:10:41;96715.00;;;26.20
56286;BMP180;42191;47.562;9.686;2023-06-22T00:13:08;96706.00;;;26.20
56286;BMP180;42191;47.562;9.686;2023-06-22T00:15:35;96702.00;;;26.10
56286;BMP180;42191;47.562;9.686;2023-06-22T00:18:02;96705.00;;;26.10
56286;BMP180;42191;47.562;9.686;2023-06-22T00:20:29;96709.00;;;26.10
56286;BMP180;42191;47.562;9.686;2023-06-22T00:22:57;96705.00;;;26.10
56286;BMP180;42191;47.562;9.686;2023-06-22T00:25:23;96706.00;;;26.10
56286;BMP180;42191;47.562;9.686;2023-06-22T00:27:50;96700.00;;;26.00
56286;BMP180;42191;47.562;9.686;2023-06-22T00:30:17;96703.00;;;26.00
56286;BMP180;42191;47.562;9.686;2023-06-22T00:32:44;96701.00;;;26.00
56286;BMP180;42191;47.562;9.686;2023-06-22T00:35:13;96695.00;;;26.00
56286;BMP180;42191;47.562;9.686;2023-06-22T00:37:40;96690.00;;;26.00
56286;BMP180;42191;47.562;9.686;2023-06-22T00:40:11;96688.00;;;25.90
56286;BMP180;42191;47.562;9.686;2023-06-22T00:42:41;96692.00;;;25.90
56286;BMP180;42191;47.562;9.686;2023-06-22T00:45:08;96687.00;;;25.90
56286;BMP180;42191;47.562;9.686;2023-06-22T00:47:35;96701.00;;;25.90
56286;BMP180;42191;47.562;9.686;2023-06-22T00:50:03;96686.00;;;25.90
56286;BMP180;42191;47.562;9.686;2023-06-22T00:52:32;96699.00;;;25.80
56286;BMP180;42191;47.562;9.686;2023-06-22T00:55:00;96694.00;;;25.80
56286;BMP180;42191;47.562;9.686;2023-06-22T00:57:27;96707.00;;;25.80
56286;BMP180;42191;47.562;9.686;2023-06-22T00:59:55;96716.00;;;25.80
56286;BMP180;42191;47.562;9.686;2023-06-22T01:02:21;96713.00;;;25.80
56286;BMP180;42191;47.562;9.686;2023-06-22T01:04:48;96718.00;;;25.70
56286;BMP180;42191;47.562;9.686;2023-06-22T01:08:07;96730.00;;;25.70
56286;BMP180;42191;47.562;9.686;2023-06-22T01:10:12;96722.00;;;25.70
56286;BMP180;42191;47.562;9.686;2023-06-22T01:12:44;96721.00;;;25.70
56286;BMP180;42191;47.562;9.686;2023-06-22T01:15:16;96721.00;;;25.70
56286;BMP180;42191;47.562;9.686;2023-06-22T01:17:45;96722.00;;;25.70
56286;BMP180;42191;47.562;9.686;2023-06-22T01:20:13;96724.00;;;25.70
56286;BMP180;42191;47.562;9.686;2023-06-22T01:23:02;96716.00;;;25.60
56286;BMP180;42191;47.562;9.686;2023-06-22T01:26:22;96717.00;;;25.60
56286;BMP180;42191;47.562;9.686;2023-06-22T01:29:06;96723.00;;;25.60
56286;BMP180;42191;47.562;9.686;2023-06-22T01:31:34;96732.00;;;25.50
56286;BMP180;42191;47.562;9.686;2023-06-22T01:34:04;96729.00;;;25.50
56286;BMP180;42191;47.562;9.686;2023-06-22T01:36:31;96731.00;;;25.50
56286;BMP180;42191;47.562;9.686;2023-06-22T01:38:58;96734.00;;;25.40
56286;BMP180;42191;47.562;9.686;2023-06-22T01:41:26;96735.00;;;25.40
56286;BMP180;42191;47.562;9.686;2023-06-22T01:43:54;96741.00;;;25.40
56286;BMP180;42191;47.562;9.686;2023-06-22T01:46:21;96743.00;;;25.30
56286;BMP180;42191;47.562;9.686;2023-06-22T01:48:49;96736.00;;;25.30
56286;BMP180;42191;47.562;9.686;2023-06-22T01:51:16;96749.00;;;25.20
56286;BMP180;42191;47.562;9.686;2023-06-22T01:53:42;96749.00;;;25.20
56286;BMP180;42191;47.562;9.686;2023-06-22T01:56:09;96743.00;;;25.20
56286;BMP180;42191;47.562;9.686;2023-06-22T01:58:48;96759.00;;;25.10
56286;BMP180;42191;47.562;9.686;2023-06-22T02:01:24;96757.00;;;25.00
56286;BMP180;42191;47.562;9.686;2023-06-22T02:04:08;96764.00;;;25.00
56286;BMP180;42191;47.562;9.686;2023-06-22T02:06:39;96764.00;;;24.90
56286;BMP180;42191;47.562;9.686;2023-06-22T02:09:14;96767.00;;;24.90
56286;BMP180;42191;47.562;9.686;2023-06-22T02:11:43;96769.00;;;24.80
56286;BMP180;42191;47.562;9.686;2023-06-22T02:14:11;96761.00;;;24.80
56286;BMP180;42191;47.562;9.686;2023-06-22T02:16:39;96771.00;;;24.80
56286;BMP180;42191;47.562;9.686;2023-06-22T02:19:06;96757.00;;;24.70
56286;BMP180;42191;47.562;9.686;2023-06-22T02:21:32;96763.00;;;24.70
56286;BMP180;42191;47.562;9.686;2023-06-22T02:23:59;96779.00;;;24.70
56286;BMP180;42191;47.562;9.686;2023-06-22T02:26:28;96772.00;;;24.60
56286;BMP180;42191;47.562;9.686;2023-06-22T02:28:54;96769.00;;;24.60
56286;BMP180;42191;47.562;9.686;2023-06-22T02:31:20;96769.00;;;24.60
56286;BMP180;42191;47.562;9.686;2023-06-22T02:33:47;96769.00;;;24.60
56286;BMP180;42191;47.562;9.686;2023-06-22T02:36:14;96778.00;;;24.50
56286;BMP180;42191;47.562;9.686;2023-06-22T02:38:43;96778.00;;;24.50
56286;BMP180;42191;47.562;9.686;2023-06-22T02:41:14;96777.00;;;24.50
56286;BMP180;42191;47.562;9.686;2023-06-22T02:43:44;96790.00;;;24.50
56286;BMP180;42191;47.562;9.686;2023-06-22T02:46:12;96799.00;;;24.50
56286;BMP180;42191;47.562;9.686;2023-06-22T02:48:39;96793.00;;;24.40
56286;BMP180;42191;47.562;9.686;2023-06-22T02:51:06;96796.00;;;24.40
56286;BMP180;42191;47.562;9.686;2023-06-22T02:53:32;96793.00;;;24.40
56286;BMP180;42191;47.562;9.686;2023-06-22T02:55:59;96791.00;;;24.40
56286;BMP180;42191;47.562;9.686;2023-06-22T02:58:27;96810.00;;;24.40
56286;BMP180;42191;47.562;9.686;2023-06-22T03:00:53;96798.00;;;24.40
56286;BMP180;42191;47.562;9.686;2023-06-22T03:03:20;96803.00;;;24.40
56286;BMP180;42191;47.562;9.686;2023-06-22T03:05:46;96795.00;;;24.40
56286;BMP180;42191;47.562;9.686;2023-06-22T03:08:12;96792.00;;;24.40
56286;BMP180;42191;47.562;9.686;2023-06-22T03:10:38;96786.00;;;24.40
56286;BMP180;42191;47.562;9.686;2023-06-22T03:13:04;96804.00;;;24.30
56286;BMP180;42191;47.562;9.686;2023-06-22T03:15:31;96801.00;;;24.30
56286;BMP180;42191;47.562;9.686;2023-06-22T03:17:58;96809.00;;;24.30
56286;BMP180;42191;47.562;9.686;2023-06-22T03:20:24;96812.00;;;24.20
56286;BMP180;42191;47.562;9.686;2023-06-22T03:22:52;96811.00;;;24.20
56286;BMP180;42191;47.562;9.686;2023-06-22T03:25:18;96803.00;;;24.20
56286;BMP180;42191;47.562;9.686;2023-06-22T03:27:45;96792.00;;;24.10
56286;BMP180;42191;47.562;9.686;2023-06-22T03:30:12;96791.00;;;24.10
56286;BMP180;42191;47.562;9.686;2023-06-22T03:32:38;96788.00;;;24.10
56286;BMP180;42191;47.562;9.686;2023-06-22T03:35:06;96791.00;;;24.10
56286;BMP180;42191;47.562;9.686;2023-06-22T03:37:32;96794.00;;;24.10
56286;BMP180;42191;47.562;9.686;2023-06-22T03:39:59;96778.00;;;24.00
56286;BMP180;42191;47.562;9.686;2023-06-22T03:42:33;96783.00;;;24.00
56286;BMP180;42191;47.562;9.686;2023-06-22T03:44:59;96792.00;;;24.00
56286;BMP180;42191;47.562;9.686;2023-06-22T03:47:26;96794.00;;;24.00
56286;BMP180;42191;47.562;9.686;2023-06-22T03:49:53;96779.00;;;23.90
56286;BMP180;42191;47.562;9.686;2023-06-22T03:52:21;96780.00;;;23.90
56286;BMP180;42191;47.562;9.686;2023-06-22T03:54:48;96776.00;;;23.90
56286;BMP180;42191;47.562;9.686;2023-06-22T03:57:14;96779.00;;;23.90
56286;BMP180;42191;47.562;9.686;2023-06-22T03:59:40;96771.00;;;23.90
56286;BMP180;42191;47.562;9.686;2023-06-22T04:02:06;96780.00;;;24.00
56286;BMP180;42191;47.562;9.686;2023-06-22T04:04:33;96775.00;;;24.00
56286;BMP180;42191;47.562;9.686;2023-06-22T04:07:01;96783.00;;;24.00
56286;BMP180;42191;47.562;9.686;2023-06-22T04:09:27;96780.00;;;24.00
56286;BMP180;42191;47.562;9.686;2023-06-22T04:11:53;96778.00;;;24.00
56286;BMP180;42191;47.562;9.686;2023-06-22T04:14:19;96787.00;;;24.00
56286;BMP180;42191;47.562;9.686;2023-06-22T04:16:45;96793.00;;;24.10
56286;BMP180;42191;47.562;9.686;2023-06-22T04:19:11;96784.00;;;24.10
56286;BMP180;42191;47.562;9.686;2023-06-22T04:21:42;96786.00;;;24.10
56286;BMP180;42191;47.562;9.686;2023-06-22T04:24:10;96789.00;;;24.10
56286;BMP180;42191;47.562;9.686;2023-06-22T04:26:37;96778.00;;;24.10
56286;BMP180;42191;47.562;9.686;2023-06-22T04:29:04;96786.00;;;24.10
56286;BMP180;42191;47.562;9.686;2023-06-22T04:31:32;96788.00;;;24.10
56286;BMP180;42191;47.562;9.686;2023-06-22T04:34:03;96789.00;;;24.10
56286;BMP180;42191;47.562;9.686;2023-06-22T04:36:37;96778.00;;;24.10
56286;BMP180;42191;47.562;9.686;2023-06-22T04:39:07;96772.00;;;24.10
56286;BMP180;42191;47.562;9.686;2023-06-22T04:41:38;96774.00;;;24.20
56286;BMP180;42191;47.562;9.686;2023-06-22T04:44:17;96763.00;;;24.20
56286;BMP180;42191;47.562;9.686;2023-06-22T04:46:54;96751.00;;;24.20
56286;BMP180;42191;47.562;9.686;2023-06-22T04:49:23;96765.00;;;24.20
56286;BMP180;42191;47.562;9.686;2023-06-22T04:51:59;96765.00;;;24.30
56286;BMP180;42191;47.562;9.686;2023-06-22T04:54:26;96760.00;;;24.30
56286;BMP180;42191;47.562;9.686;2023-06-22T04:56:52;96747.00;;;24.40
56286;BMP180;42191;47.562;9.686;2023-06-22T04:59:25;96734.00;;;24.50
56286;BMP180;42191;47.562;9.686;2023-06-22T05:01:57;96729.00;;;24.60
56286;BMP180;42191;47.562;9.686;2023-06-22T05:04:24;96752.00;;;24.60
56286;BMP180;42191;47.562;9.686;2023-06-22T05:06:51;96742.00;;;24.70
56286;BMP180;42191;47.562;9.686;2023-06-22T05:09:18;96729.00;;;24.80
56286;BMP180;42191;47.562;9.686;2023-06-22T05:11:44;96748.00;;;24.80
56286;BMP180;42191;47.562;9.686;2023-06-22T05:14:10;96740.00;;;24.90
56286;BMP180;42191;47.562;9.686;2023-06-22T05:16:37;96736.00;;;24.90
56286;BMP180;42191;47.562;9.686;2023-06-22T05:19:04;96748.00;;;24.90
56286;BMP180;42191;47.562;9.686;2023-06-22T05:21:30;96749.00;;;25.00
56286;BMP180;42191;47.562;9.686;2023-06-22T05:23:57;96748.00;;;25.00
56286;BMP180;42191;47.562;9.686;2023-06-22T05:26:26;96735.00;;;25.10
56286;BMP180;42191;47.562;9.686;2023-06-22T05:28:53;96735.00;;;25.20
56286;BMP180;42191;47.562;9.686;2023-06-22T05:31:20;96730.00;;;25.20
56286;BMP180;42191;47.562;9.686;2023-06-22T05:33:47;96727.00;;;25.30
56286;BMP180;42191;47.562;9.686;2023-06-22T05:36:13;96741.00;;;25.40
56286;BMP180;42191;47.562;9.686;2023-06-22T05:38:41;96742.00;;;25.40
56286;BMP180;42191;47.562;9.686;2023-06-22T05:41:08;96742.00;;;25.50
56286;BMP180;42191;47.562;9.686;2023-06-22T05:43:34;96744.00;;;25.50
56286;BMP180;42191;47.562;9.686;2023-06-22T05:46:01;96744.00;;;25.60
56286;BMP180;42191;47.562;9.686;2023-06-22T05:48:27;96744.00;;;25.60
56286;BMP180;42191;47.562;9.686;2023-06-22T05:50:54;96744.00;;;25.70
56286;BMP180;42191;47.562;9.686;2023-06-22T05:53:20;96748.00;;;25.70
56286;BMP180;42191;47.562;9.686;2023-06-22T05:55:47;96735.00;;;25.70
56286;BMP180;42191;47.562;9.686;2023-06-22T05:58:13;96743.00;;;25.80
56286;BMP180;42191;47.562;9.686;2023-06-22T06:00:39;96747.00;;;25.90
56286;BMP180;42191;47.562;9.686;2023-06-22T06:03:06;96743.00;;;25.90
56286;BMP180;42191;47.562;9.686;2023-06-22T06:05:33;96744.00;;;26.00
56286;BMP180;42191;47.562;9.686;2023-06-22T06:08:00;96748.00;;;26.10
56286;BMP180;42191;47.562;9.686;2023-06-22T06:10:27;96749.00;;;26.20
56286;BMP180;42191;47.562;9.686;2023-06-22T06:12:56;96750.00;;;26.20
56286;BMP180;42191;47.562;9.686;2023-06-22T06:15:22;96746.00;;;26.30
56286;BMP180;42191;47.562;9.686;2023-06-22T06:17:50;96746.00;;;26.40
56286;BMP180;42191;47.562;9.686;2023-06-22T06:20:19;96742.00;;;26.40
56286;BMP180;42191;47.562;9.686;2023-06-22T06:22:46;96747.00;;;26.50
56286;BMP180;42191;47.562;9.686;2023-06-22T06:25:12;96748.00;;;26.60
56286;BMP180;42191;47.562;9.686;2023-06-22T06:27:43;96740.00;;;26.60
56286;BMP180;42191;47.562;9.686;2023-06-22T06:30:10;96745.00;;;26.70
56286;BMP180;42191;47.562;9.686;2023-06-22T06:32:36;96723.00;;;26.80
56286;BMP180;42191;47.562;9.686;2023-06-22T06:35:05;96743.00;;;26.80
56286;BMP180;42191;47.562;9.686;2023-06-22T06:37:31;96745.00;;;26.90
56286;BMP180;42191;47.562;9.686;2023-06-22T06:39:58;96744.00;;;26.90
56286;BMP180;42191;47.562;9.686;2023-06-22T06:42:24;96730.00;;;27.00
56286;BMP180;42191;47.562;9.686;2023-06-22T06:44:50;96742.00;;;27.00
56286;BMP180;42191;47.562;9.686;2023-06-22T06:47:16;96744.00;;;27.10
56286;BMP180;42191;47.562;9.686;2023-06-22T06:49:43;96746.00;;;27.10
56286;BMP180;42191;47.562;9.686;2023-06-22T06:52:09;96740.00;;;27.10
56286;BMP180;42191;47.562;9.686;2023-06-22T06:54:35;96724.00;;;27.20
56286;BMP180;42191;47.562;9.686;2023-06-22T06:57:01;96728.00;;;27.20
56286;BMP180;42191;47.562;9.686;2023-06-22T06:59:29;96736.00;;;27.20
56286;BMP180;42191;47.562;9.686;2023-06-22T07:01:56;96735.00;;;27.30
56286;BMP180;42191;47.562;9.686;2023-06-22T07:04:22;96729.00;;;27.30
56286;BMP180;42191;47.562;9.686;2023-06-22T07:06:48;96723.00;;;27.30
56286;BMP180;42191;47.562;9.686;2023-06-22T07:09:14;96725.00;;;27.30
56286;BMP180;42191;47.562;9.686;2023-06-22T07:11:40;96733.00;;;27.30
56286;BMP180;42191;47.562;9.686;2023-06-22T07:14:06;96742.00;;;27.30
56286;BMP180;42191;47.562;9.686;2023-06-22T07:16:32;96741.00;;;27.40
56286;BMP180;42191;47.562;9.686;2023-06-22T07:18:58;96734.00;;;27.40
56286;BMP180;42191;47.562;9.686;2023-06-22T07:21:24;96742.00;;;27.40
56286;BMP180;42191;47.562;9.686;2023-06-22T07:23:50;96754.00;;;27.30
56286;BMP180;42191;47.562;9.686;2023-06-22T07:26:17;96732.00;;;27.30
56286;BMP180;42191;47.562;9.686;2023-06-22T07:28:43;96746.00;;;27.30
56286;BMP180;42191;47.562;9.686;2023-06-22T07:31:09;96747.00;;;27.30
56286;BMP180;42191;47.562;9.686;2023-06-22T07:33:35;96750.00;;;27.30
56286;BMP180;42191;47.562;9.686;2023-06-22T07:36:01;96753.00;;;27.30
56286;BMP180;42191;47.562;9.686;2023-06-22T07:38:33;96747.00;;;27.40
56286;BMP180;42191;47.562;9.686;2023-06-22T07:41:01;96758.00;;;27.40
56286;BMP180;42191;47.562;9.686;2023-06-22T07:43:27;96753.00;;;27.50
56286;BMP180;42191;47.562;9.686;2023-06-22T07:45:53;96741.00;;;27.50
56286;BMP180;42191;47.562;9.686;2023-06-22T07:48:22;96746.00;;;27.60
56286;BMP180;42191;47.562;9.686;2023-06-22T07:50:49;96753.00;;;27.70
56286;BMP180;42191;47.562;9.686;2023-06-22T07:53:15;96743.00;;;27.70
56286;BMP180;42191;47.562;9.686;2023-06-22T07:55:41;96747.00;;;27.70
56286;BMP180;42191;47.562;9.686;2023-06-22T07:58:07;96754.00;;;27.80
56286;BMP180;42191;47.562;9.686;2023-06-22T08:00:34;96752.00;;;27.90
56286;BMP180;42191;47.562;9.686;2023-06-22T08:03:00;96735.00;;;27.90
56286;BMP180;42191;47.562;9.686;2023-06-22T08:05:29;96753.00;;;28.00
56286;BMP180;42191;47.562;9.686;2023-06-22T08:07:56;96758.00;;;28.10
56286;BMP180;42191;47.562;9.686;2023-06-22T08:10:22;96754.00;;;28.10
56286;BMP180;42191;47.562;9.686;2023-06-22T08:12:48;96758.00;;;28.10
56286;BMP180;42191;47.562;9.686;2023-06-22T08:15:14;96770.00;;;28.20
56286;BMP180;42191;47.562;9.686;2023-06-22T08:17:41;96762.00;;;28.30
56286;BMP180;42191;47.562;9.686;2023-06-22T08:20:08;96769.00;;;28.40
56286;BMP180;42191;47.562;9.686;2023-06-22T08:22:40;96752.00;;;28.40
56286;BMP180;42191;47.562;9.686;2023-06-22T08:25:07;96754.00;;;28.40
56286;BMP180;42191;47.562;9.686;2023-06-22T08:27:33;96746.00;;;28.50
56286;BMP180;42191;47.562;9.686;2023-06-22T08:30:01;96768.00;;;28.60
56286;BMP180;42191;47.562;9.686;2023-06-22T08:32:30;96776.00;;;28.70
56286;BMP180;42191;47.562;9.686;2023-06-22T08:34:58;96786.00;;;28.80
56286;BMP180;42191;47.562;9.686;2023-06-22T08:37:24;96804.00;;;28.90
56286;BMP180;42191;47.562;9.686;2023-06-22T08:40:01;96844.00;;;28.90
56286;BMP180;42191;47.562;9.686;2023-06-22T08:42:27;96873.00;;;28.80
56286;BMP180;42191;47.562;9.686;2023-06-22T08:44:53;96871.00;;;28.80
56286;BMP180;42191;47.562;9.686;2023-06-22T08:47:20;96857.00;;;28.70
56286;BMP180;42191;47.562;9.686;2023-06-22T08:49:46;96856.00;;;28.70
56286;BMP180;42191;47.562;9.686;2023-06-22T08:52:13;96885.00;;;28.70
56286;BMP180;42191;47.562;9.686;2023-06-22T08:54:39;96881.00;;;28.70
56286;BMP180;42191;47.562;9.686;2023-06-22T08:57:05;96876.00;;;28.70
56286;BMP180;42191;47.562;9.686;2023-06-22T08:59:31;96910.00;;;28.70
56286;BMP180;42191;47.562;9.686;2023-06-22T09:01:57;96911.00;;;28.80
56286;BMP180;42191;47.562;9.686;2023-06-22T09:04:24;96904.00;;;28.80
56286;BMP180;42191;47.562;9.686;2023-06-22T09:06:50;96921.00;;;28.90
56286;BMP180;42191;47.562;9.686;2023-06-22T09:09:18;96913.00;;;29.00
56286;BMP180;42191;47.562;9.686;2023-06-22T09:11:44;96912.00;;;29.10
56286;BMP180;42191;47.562;9.686;2023-06-22T09:14:11;96914.00;;;29.20
56286;BMP180;42191;47.562;9.686;2023-06-22T09:16:37;96887.00;;;29.30
56286;BMP180;42191;47.562;9.686;2023-06-22T09:19:03;96891.00;;;29.40
56286;BMP180;42191;47.562;9.686;2023-06-22T09:21:30;96899.00;;;29.40
56286;BMP180;42191;47.562;9.686;2023-06-22T09:23:56;96900.00;;;29.40
56286;BMP180;42191;47.562;9.686;2023-06-22T09:26:22;96901.00;;;29.50
56286;BMP180;42191;47.562;9.686;2023-06-22T09:28:49;96895.00;;;29.60
56286;BMP180;42191;47.562;9.686;2023-06-22T09:31:16;96884.00;;;29.70
56286;BMP180;42191;47.562;9.686;2023-06-22T09:33:42;96891.00;;;29.80
56286;BMP180;42191;47.562;9.686;2023-06-22T09:36:09;96889.00;;;29.90
56286;BMP180;42191;47.562;9.686;2023-06-22T09:38:36;96895.00;;;30.00
56286;BMP180;42191;47.562;9.686;2023-06-22T09:41:02;96892.00;;;30.20
56286;BMP180;42191;47.562;9.686;2023-06-22T09:43:29;96878.00;;;30.30
56286;BMP180;42191;47.562;9.686;2023-06-22T09:45:55;96862.00;;;30.50
56286;BMP180;42191;47.562;9.686;2023-06-22T09:48:22;96870.00;;;30.60
56286;BMP180;42191;47.562;9.686;2023-06-22T09:50:48;96860.00;;;30.70
56286;BMP180;42191;47.562;9.686;2023-06-22T09:53:14;96858.00;;;30.80
56286;BMP180;42191;47.562;9.686;2023-06-22T09:55:40;96861.00;;;31.00
56286;BMP180;42191;47.562;9.686;2023-06-22T09:58:07;96840.00;;;31.10
56286;BMP180;42191;47.562;9.686;2023-06-22T10:00:33;96842.00;;;31.30
56286;BMP180;42191;47.562;9.686;2023-06-22T10:02:59;96833.00;;;31.50
56286;BMP180;42191;47.562;9.686;2023-06-22T10:05:25;96832.00;;;31.70
56286;BMP180;42191;47.562;9.686;2023-06-22T10:07:51;96814.00;;;31.90
56286;BMP180;42191;47.562;9.686;2023-06-22T10:10:18;96797.00;;;32.00
56286;BMP180;42191;47.562;9.686;2023-06-22T10:12:47;96803.00;;;32.20
56286;BMP180;42191;47.562;9.686;2023-06-22T10:15:14;96800.00;;;32.40
56286;BMP180;42191;47.562;9.686;2023-06-22T10:17:40;96799.00;;;32.50
56286;BMP180;42191;47.562;9.686;2023-06-22T10:20:07;96800.00;;;32.70
56286;BMP180;42191;47.562;9.686;2023-06-22T10:22:43;96800.00;;;32.80
56286;BMP180;42191;47.562;9.686;2023-06-22T10:25:12;96791.00;;;32.90
56286;BMP180;42191;47.562;9.686;2023-06-22T10:27:39;96781.00;;;33.00
56286;BMP180;42191;47.562;9.686;2023-06-22T10:30:09;96790.00;;;33.20
56286;BMP180;42191;47.562;9.686;2023-06-22T10:32:37;96782.00;;;33.30
56286;BMP180;42191;47.562;9.686;2023-06-22T10:35:03;96782.00;;;33.50
56286;BMP180;42191;47.562;9.686;2023-06-22T10:37:29;96774.00;;;33.70
56286;BMP180;42191;47.562;9.686;2023-06-22T10:39:55;96770.00;;;33.90
56286;BMP180;42191;47.562;9.686;2023-06-22T10:42:21;96775.00;;;34.10
56286;BMP180;42191;47.562;9.686;2023-06-22T10:44:47;96770.00;;;34.40
56286;BMP180;42191;47.562;9.686;2023-06-22T10:47:13;96775.00;;;34.60
56286;BMP180;42191;47.562;9.686;2023-06-22T10:49:40;96763.00;;;34.70
56286;BMP180;42191;47.562;9.686;2023-06-22T10:52:07;96755.00;;;34.80
56286;BMP180;42191;47.562;9.686;2023-06-22T10:54:35;96743.00;;;34.90
56286;BMP180;42191;47.562;9.686;2023-06-22T10:57:02;96746.00;;;35.00
56286;BMP180;42191;47.562;9.686;2023-06-22T10:59:28;96749.00;;;35.00
56286;BMP180;42191;47.562;9.686;2023-06-22T11:01:56;96752.00;;;35.00
56286;BMP180;42191;47.562;9.686;2023-06-22T11:04:23;96755.00;;;35.00
56286;BMP180;42191;47.562;9.686;2023-06-22T11:06:49;96752.00;;;35.10
56286;BMP180;42191;47.562;9.686;2023-06-22T11:09:16;96744.00;;;35.10
56286;BMP180;42191;47.562;9.686;2023-06-22T11:11:46;96734.00;;;35.20
56286;BMP180;42191;47.562;9.686;2023-06-22T11:14:12;96744.00;;;35.40
56286;BMP180;42191;47.562;9.686;2023-06-22T11:16:39;96747.00;;;35.50
56286;BMP180;42191;47.562;9.686;2023-06-22T11:19:05;96735.00;;;35.60
56286;BMP180;42191;47.562;9.686;2023-06-22T11:21:32;96739.00;;;35.80
56286;BMP180;42191;47.562;9.686;2023-06-22T11:23:59;96741.00;;;36.00
56286;BMP180;42191;47.562;9.686;2023-06-22T11:26:25;96743.00;;;36.20
56286;BMP180;42191;47.562;9.686;2023-06-22T11:28:55;96744.00;;;36.30
56286;BMP180;42191;47.562;9.686;2023-06-22T11:31:21;96750.00;;;36.30
56286;BMP180;42191;47.562;9.686;2023-06-22T11:33:47;96745.00;;;36.20
56286;BMP180;42191;47.562;9.686;2023-06-22T11:36:14;96735.00;;;36.10
56286;BMP180;42191;47.562;9.686;2023-06-22T11:38:40;96744.00;;;36.00
56286;BMP180;42191;47.562;9.686;2023-06-22T11:41:07;96741.00;;;36.00
56286;BMP180;42191;47.562;9.686;2023-06-22T11:43:34;96736.00;;;35.90
56286;BMP180;42191;47.562;9.686;2023-06-22T11:46:01;96745.00;;;35.90
56286;BMP180;42191;47.562;9.686;2023-06-22T11:48:27;96748.00;;;35.70
56286;BMP180;42191;47.562;9.686;2023-06-22T11:50:53;96742.00;;;35.60
56286;BMP180;42191;47.562;9.686;2023-06-22T11:53:25;96745.00;;;35.60
56286;BMP180;42191;47.562;9.686;2023-06-22T11:55:51;96734.00;;;35.70
56286;BMP180;42191;47.562;9.686;2023-06-22T11:58:19;96744.00;;;35.70
56286;BMP180;42191;47.562;9.686;2023-06-22T12:00:45;96739.00;;;35.70
56286;BMP180;42191;47.562;9.686;2023-06-22T12:03:11;96747.00;;;35.70
56286;BMP180;42191;47.562;9.686;2023-06-22T12:05:38;96744.00;;;35.70
56286;BMP180;42191;47.562;9.686;2023-06-22T12:08:04;96746.00;;;35.70
56286;BMP180;42191;47.562;9.686;2023-06-22T12:10:31;96740.00;;;35.60
56286;BMP180;42191;47.562;9.686;2023-06-22T12:12:57;96740.00;;;35.60
56286;BMP180;42191;47.562;9.686;2023-06-22T12:15:26;96726.00;;;35.50
56286;BMP180;42191;47.562;9.686;2023-06-22T12:17:52;96735.00;;;35.40
56286;BMP180;42191;47.562;9.686;2023-06-22T12:20:18;96742.00;;;35.40
56286;BMP180;42191;47.562;9.686;2023-06-22T12:22:45;96732.00;;;35.30
56286;BMP180;42191;47.562;9.686;2023-06-22T12:25:11;96731.00;;;35.30
56286;BMP180;42191;47.562;9.686;2023-06-22T12:27:38;96740.00;;;35.30
56286;BMP180;42191;47.562;9.686;2023-06-22T12:30:04;96732.00;;;35.20
56286;BMP180;42191;47.562;9.686;2023-06-22T12:32:31;96729.00;;;35.10
56286;BMP180;42191;47.562;9.686;2023-06-22T12:34:57;96743.00;;;35.10
56286;BMP180;42191;47.562;9.686;2023-06-22T12:37:24;96743.00;;;35.00
56286;BMP180;42191;47.562;9.686;2023-06-22T12:39:50;96742.00;;;35.00
56286;BMP180;42191;47.562;9.686;2023-06-22T12:42:17;96735.00;;;35.00
56286;BMP180;42191;47.562;9.686;2023-06-22T12:44:43;96732.00;;;35.00
56286;BMP180;42191;47.562;9.686;2023-06-22T12:47:09;96729.00;;;35.00
56286;BMP180;42191;47.562;9.686;2023-06-22T12:49:36;96728.00;;;35.10
56286;BMP180;42191;47.562;9.686;2023-06-22T12:52:02;96730.00;;;35.20
56286;BMP180;42191;47.562;9.686;2023-06-22T12:54:29;96731.00;;;35.20
56286;BMP180;42191;47.562;9.686;2023-06-22T12:56:55;96739.00;;;35.30
56286;BMP180;42191;47.562;9.686;2023-06-22T12:59:22;96742.00;;;35.30
56286;BMP180;42191;47.562;9.686;2023-06-22T13:01:48;96742.00;;;35.30
56286;BMP180;42191;47.562;9.686;2023-06-22T13:04:14;96740.00;;;35.30
56286;BMP180;42191;47.562;9.686;2023-06-22T13:06:41;96741.00;;;35.40
56286;BMP180;42191;47.562;9.686;2023-06-22T13:09:09;96739.00;;;35.40
56286;BMP180;42191;47.562;9.686;2023-06-22T13:11:35;96741.00;;;35.50
56286;BMP180;42191;47.562;9.686;2023-06-22T13:14:01;96733.00;;;35.60
56286;BMP180;42191;47.562;9.686;2023-06-22T13:16:27;96739.00;;;35.70
56286;BMP180;42191;47.562;9.686;2023-06-22T13:18:53;96732.00;;;35.80
56286;BMP180;42191;47.562;9.686;2023-06-22T13:21:19;96729.00;;;36.00
56286;BMP180;42191;47.562;9.686;2023-06-22T13:23:45;96731.00;;;36.20
56286;BMP180;42191;47.562;9.686;2023-06-22T13:26:12;96732.00;;;36.30
56286;BMP180;42191;47.562;9.686;2023-06-22T13:28:38;96730.00;;;36.40
56286;BMP180;42191;47.562;9.686;2023-06-22T13:31:04;96734.00;;;36.50
56286;BMP180;42191;47.562;9.686;2023-06-22T13:33:30;96733.00;;;36.70
56286;BMP180;42191;47.562;9.686;2023-06-22T13:35:56;96730.00;;;37.00
56286;BMP180;42191;47.562;9.686;2023-06-22T13:38:22;96720.00;;;37.50
56286;BMP180;42191;47.562;9.686;2023-06-22T13:40:49;96716.00;;;38.10
56286;BMP180;42191;47.562;9.686;2023-06-22T13:43:15;96716.00;;;38.70
56286;BMP180;42191;47.562;9.686;2023-06-22T13:45:41;96715.00;;;39.20
56286;BMP180;42191;47.562;9.686;2023-06-22T13:48:08;96706.00;;;39.80
56286;BMP180;42191;47.562;9.686;2023-06-22T13:50:34;96703.00;;;40.30
56286;BMP180;42191;47.562;9.686;2023-06-22T13:53:01;96700.00;;;40.70
56286;BMP180;42191;47.562;9.686;2023-06-22T13:55:27;96692.00;;;41.20
56286;BMP180;42191;47.562;9.686;2023-06-22T13:57:53;96691.00;;;41.70
56286;BMP180;42191;47.562;9.686;2023-06-22T14:00:20;96685.00;;;42.10
56286;BMP180;42191;47.562;9.686;2023-06-22T14:02:46;96695.00;;;42.30
56286;BMP180;42191;47.562;9.686;2023-06-22T14:05:12;96698.00;;;42.40
56286;BMP180;42191;47.562;9.686;2023-06-22T14:07:38;96699.00;;;42.50
56286;BMP180;42191;47.562;9.686;2023-06-22T14:10:04;96706.00;;;42.60